createdAt,value
2018-05-02T00:00:27.319Z,8.93
2018-05-02T00:02:54.855Z,6.73
2018-05-02T00:05:22.578Z,6.30
2018-05-02T00:07:50.214Z,7.73
2018-05-02T00:10:17.764Z,5.00
2018-05-02T00:12:45.239Z,6.07
2018-05-02T00:15:12.983Z,6.13
2018-05-02T00:17:40.751Z,5.93
2018-05-02T00:20:08.515Z,5.53
2018-05-02T00:22:36.012Z,6.63
2018-05-02T00:25:03.738Z,6.47
2018-05-02T00:27:31.508Z,7.10
2018-05-02T00:29:58.987Z,8.63
2018-05-02T00:32:26.717Z,7.10
2018-05-02T00:34:54.201Z,5.23
2018-05-02T00:37:21.946Z,6.37
2018-05-02T00:39:49.433Z,5.50
2018-05-02T00:42:17.177Z,6.87
2018-05-02T00:44:44.934Z,7.07
2018-05-02T00:47:12.463Z,6.40
2018-05-02T00:49:39.959Z,7.40
2018-05-02T00:52:07.603Z,5.93
2018-05-02T00:54:35.369Z,6.40
2018-05-02T00:57:19.758Z,6.53
2018-05-02T00:59:47.239Z,5.80
2018-05-02T01:02:14.723Z,6.70
2018-05-02T01:04:42.995Z,5.03
2018-05-02T01:07:10.752Z,7.90
2018-05-02T01:09:38.443Z,6.70
2018-05-02T01:12:05.923Z,7.50
2018-05-02T01:14:33.424Z,5.20
2018-05-02T01:17:01.215Z,4.97
2018-05-02T01:19:28.968Z,8.20
2018-05-02T01:21:56.535Z,7.67
2018-05-02T01:24:24.807Z,5.13
2018-05-02T01:26:52.295Z,7.10
2018-05-02T01:29:19.799Z,5.13
2018-05-02T01:31:47.292Z,5.83
2018-05-02T01:34:14.951Z,6.90
2018-05-02T01:36:42.442Z,6.30
2018-05-02T01:39:09.952Z,6.50
2018-05-02T01:41:38.203Z,7.83
2018-05-02T01:44:05.683Z,6.90
2018-05-02T01:46:33.183Z,6.73
2018-05-02T01:49:13.471Z,8.37
2018-05-02T01:51:40.973Z,5.77
2018-05-02T01:54:08.731Z,6.70
2018-05-02T01:56:36.491Z,6.90
2018-05-02T01:59:04.259Z,5.73
2018-05-02T02:01:32.025Z,6.93
2018-05-02T02:03:59.515Z,5.43
2018-05-02T02:06:27.083Z,7.13
2018-05-02T02:08:54.576Z,8.57
2018-05-02T02:11:22.087Z,5.90
2018-05-02T02:13:49.567Z,7.20
2018-05-02T02:16:17.066Z,5.83
2018-05-02T02:18:44.553Z,7.40
2018-05-02T02:21:12.054Z,7.20
2018-05-02T02:23:39.531Z,5.73
2018-05-02T02:26:07.852Z,6.03
2018-05-02T02:28:35.495Z,6.50
2018-05-02T02:31:02.999Z,7.80
2018-05-02T02:33:30.486Z,5.07
2018-05-02T02:35:57.967Z,5.97
2018-05-02T02:38:25.468Z,7.13
2018-05-02T02:40:52.958Z,7.30
2018-05-02T02:43:21.218Z,5.97
2018-05-02T02:45:48.700Z,5.63
2018-05-02T02:48:16.463Z,9.40
2018-05-02T02:50:44.149Z,7.23
2018-05-02T02:53:11.684Z,6.77
2018-05-02T02:55:39.448Z,7.87
2018-05-02T02:58:07.215Z,6.30
2018-05-02T03:00:34.700Z,7.33
2018-05-02T03:03:02.253Z,7.93
2018-05-02T03:05:29.896Z,7.97
2018-05-02T03:07:57.399Z,7.50
2018-05-02T03:10:24.892Z,7.80
2018-05-02T03:12:52.576Z,7.30
2018-05-02T03:15:20.335Z,8.40
2018-05-02T03:17:47.828Z,7.47
2018-05-02T03:20:15.620Z,7.97
2018-05-02T03:22:43.315Z,6.90
2018-05-02T03:25:11.005Z,7.53
2018-05-02T03:27:38.496Z,10.77
2018-05-02T03:30:05.999Z,8.33
2018-05-02T03:32:33.684Z,8.07
2018-05-02T03:35:01.180Z,7.77
2018-05-02T03:37:28.667Z,8.87
2018-05-02T03:39:56.436Z,9.73
2018-05-02T03:42:23.912Z,9.07
2018-05-02T03:44:51.691Z,10.00
2018-05-02T03:47:19.432Z,8.57
2018-05-02T03:49:46.917Z,9.20
2018-05-02T03:52:14.423Z,7.70
2018-05-02T03:54:42.675Z,7.43
2018-05-02T03:57:10.172Z,8.43
2018-05-02T03:59:49.560Z,9.27
2018-05-02T04:02:28.760Z,9.77
2018-05-02T04:05:07.964Z,9.93
2018-05-02T04:07:36.259Z,9.13
2018-05-02T04:10:03.755Z,9.93
2018-05-02T04:12:31.293Z,10.70
2018-05-02T04:14:58.783Z,10.10
2018-05-02T04:17:26.344Z,11.80
2018-05-02T04:19:53.932Z,12.07
2018-05-02T04:22:21.476Z,9.07
2018-05-02T04:24:48.996Z,9.03
2018-05-02T04:27:16.503Z,10.27
2018-05-02T04:29:44.081Z,10.90
2018-05-02T04:32:11.599Z,13.07
2018-05-02T04:34:39.119Z,13.63
2018-05-02T04:37:07.525Z,15.37
2018-05-02T04:39:35.030Z,16.23
2018-05-02T04:42:02.524Z,14.13
2018-05-02T04:44:30.242Z,12.33
2018-05-02T04:46:57.728Z,12.67
2018-05-02T04:49:25.234Z,16.80
2018-05-02T04:51:52.720Z,17.93
2018-05-02T04:54:21.312Z,12.67
2018-05-02T04:56:48.803Z,10.63
2018-05-02T04:59:16.307Z,11.97
2018-05-02T05:01:44.560Z,8.80
2018-05-02T05:04:12.359Z,17.23
2018-05-02T05:06:40.198Z,13.70
2018-05-02T05:09:07.651Z,18.43
2018-05-02T05:11:35.144Z,15.50
2018-05-02T05:14:02.795Z,12.83
2018-05-02T05:16:30.663Z,14.50
2018-05-02T05:18:58.955Z,10.20
2018-05-02T05:21:26.619Z,10.27
2018-05-02T05:23:54.143Z,10.67
2018-05-02T05:26:22.852Z,9.17
2018-05-02T05:28:50.337Z,9.00
2018-05-02T05:31:17.851Z,11.23
2018-05-02T05:33:46.103Z,12.07
2018-05-02T05:36:13.618Z,16.63
2018-05-02T05:38:41.108Z,13.63
2018-05-02T05:41:08.619Z,21.13
2018-05-02T05:43:36.182Z,9.33
2018-05-02T05:46:03.739Z,10.73
2018-05-02T05:48:31.248Z,9.37
2018-05-02T05:50:58.965Z,11.80
2018-05-02T05:53:26.717Z,15.97
2018-05-02T05:55:54.226Z,16.23
2018-05-02T05:58:21.931Z,10.30
2018-05-02T06:00:49.457Z,12.60
2018-05-02T06:03:17.835Z,8.10
2018-05-02T06:05:45.533Z,10.00
2018-05-02T06:08:13.023Z,10.27
2018-05-02T06:10:40.507Z,10.73
2018-05-02T06:13:08.011Z,13.00
2018-05-02T06:15:35.676Z,14.37
2018-05-02T06:18:03.251Z,35.03
2018-05-02T06:20:30.890Z,12.87
2018-05-02T06:22:59.305Z,12.37
2018-05-02T06:25:26.795Z,14.23
2018-05-02T06:27:54.486Z,10.63
2018-05-02T06:30:21.976Z,13.47
2018-05-02T06:32:49.472Z,9.50
2018-05-02T06:35:17.151Z,16.40
2018-05-02T06:37:45.181Z,12.60
2018-05-02T06:40:12.635Z,10.53
2018-05-02T06:42:40.140Z,13.03
2018-05-02T06:45:07.644Z,18.93
2018-05-02T06:47:35.324Z,12.87
2018-05-02T06:50:02.812Z,12.77
2018-05-02T06:52:30.299Z,9.80
2018-05-02T06:54:58.048Z,12.60
2018-05-02T06:57:26.312Z,11.93
2018-05-02T06:59:54.584Z,11.00
2018-05-02T07:02:22.835Z,10.67
2018-05-02T07:04:50.344Z,11.77
2018-05-02T07:07:17.932Z,10.53
2018-05-02T07:09:45.352Z,12.73
2018-05-02T07:12:12.864Z,11.07
2018-05-02T07:14:40.385Z,13.20
2018-05-02T07:17:07.878Z,15.50
2018-05-02T07:19:35.471Z,13.93
2018-05-02T07:22:03.720Z,9.00
2018-05-02T07:24:31.431Z,14.67
2018-05-02T07:26:58.934Z,10.93
2018-05-02T07:29:26.456Z,10.60
2018-05-02T07:31:53.983Z,10.33
2018-05-02T07:34:22.393Z,11.47
2018-05-02T07:36:49.911Z,14.80
2018-05-02T07:39:17.410Z,13.53
2018-05-02T07:41:44.928Z,10.00
2018-05-02T07:44:12.411Z,9.37
2018-05-02T07:46:39.986Z,8.03
2018-05-02T07:49:07.561Z,12.77
2018-05-02T07:51:35.377Z,11.87
2018-05-02T07:54:02.872Z,9.60
2018-05-02T07:56:30.633Z,11.63
2018-05-02T07:58:58.298Z,15.07
2018-05-02T08:01:25.803Z,13.30
2018-05-02T08:03:53.590Z,10.03
2018-05-02T08:06:21.362Z,11.27
2018-05-02T08:08:48.924Z,7.30
2018-05-02T08:11:16.431Z,11.27
2018-05-02T08:13:43.920Z,10.13
2018-05-02T08:16:11.442Z,9.07
2018-05-02T08:18:38.948Z,11.60
2018-05-02T08:21:06.708Z,11.50
2018-05-02T08:23:34.220Z,9.50
2018-05-02T08:26:01.839Z,9.00
2018-05-02T08:28:29.347Z,11.37
2018-05-02T08:30:56.843Z,18.87
2018-05-02T08:33:24.541Z,7.00
2018-05-02T08:35:52.068Z,8.60
2018-05-02T08:38:19.585Z,10.40
2018-05-02T08:40:47.070Z,8.90
2018-05-02T08:43:15.363Z,7.63
2018-05-02T08:45:42.857Z,14.07
2018-05-02T08:48:10.586Z,17.47
2018-05-02T08:50:38.353Z,14.80
2018-05-02T08:53:05.863Z,10.00
2018-05-02T08:55:33.344Z,9.97
2018-05-02T08:58:01.632Z,6.97
2018-05-02T09:00:29.126Z,7.70
2018-05-02T09:02:56.656Z,18.03
2018-05-02T09:05:24.315Z,10.20
2018-05-02T09:07:52.076Z,7.30
2018-05-02T09:10:19.656Z,8.33
2018-05-02T09:12:47.151Z,7.63
2018-05-02T09:15:14.659Z,12.93
2018-05-02T09:17:42.211Z,4.03
2018-05-02T09:20:09.764Z,8.87
2018-05-02T09:22:38.024Z,5.00
2018-05-02T09:25:05.528Z,8.37
2018-05-02T09:27:33.015Z,6.20
2018-05-02T09:30:00.714Z,6.67
2018-05-02T09:32:28.201Z,9.70
2018-05-02T09:34:55.720Z,6.13
2018-05-02T09:37:23.972Z,4.10
2018-05-02T09:39:51.488Z,5.17
2018-05-02T09:42:18.980Z,7.90
2018-05-02T09:44:46.509Z,3.63
2018-05-02T09:47:14.062Z,4.73
2018-05-02T09:49:41.596Z,3.97
2018-05-02T09:52:09.165Z,4.73
2018-05-02T09:54:36.828Z,6.67
2018-05-02T09:57:04.310Z,6.80
2018-05-02T09:59:32.019Z,7.03
2018-05-02T10:01:59.803Z,3.67
2018-05-02T10:04:28.058Z,4.20
2018-05-02T10:06:55.579Z,5.87
2018-05-02T10:09:23.071Z,3.03
2018-05-02T10:11:50.577Z,4.80
2018-05-02T10:14:18.064Z,9.97
2018-05-02T10:16:45.569Z,5.90
2018-05-02T10:19:13.063Z,4.87
2018-05-02T10:21:40.623Z,5.20
2018-05-02T10:24:08.159Z,4.10
2018-05-02T10:26:35.659Z,4.40
2018-05-02T10:29:03.363Z,4.47
2018-05-02T10:31:31.769Z,4.80
2018-05-02T10:33:59.503Z,3.17
2018-05-02T10:36:26.985Z,5.47
2018-05-02T10:38:54.501Z,3.23
2018-05-02T10:41:22.107Z,2.57
2018-05-02T10:43:49.621Z,2.73
2018-05-02T10:46:17.119Z,3.03
2018-05-02T10:48:44.644Z,3.83
2018-05-02T10:51:12.899Z,2.93
2018-05-02T10:53:40.403Z,5.27
2018-05-02T10:56:07.892Z,5.73
2018-05-02T10:58:35.412Z,2.97
2018-05-02T11:01:02.903Z,3.50
2018-05-02T11:03:30.423Z,2.97
2018-05-02T11:05:57.986Z,5.10
2018-05-02T11:08:25.923Z,4.73
2018-05-02T11:10:53.467Z,5.03
2018-05-02T11:13:20.972Z,3.80
2018-05-02T11:15:48.689Z,6.73
2018-05-02T11:18:16.167Z,2.80
2018-05-02T11:20:43.948Z,3.97
2018-05-02T11:23:11.431Z,5.53
2018-05-02T11:25:38.959Z,3.30
2018-05-02T11:28:07.248Z,2.40
2018-05-02T11:30:35.005Z,4.43
2018-05-02T11:33:02.523Z,5.17
2018-05-02T11:35:30.223Z,4.07
2018-05-02T11:37:57.996Z,4.13
2018-05-02T11:40:25.806Z,2.33
2018-05-02T11:42:53.287Z,3.17
2018-05-02T11:45:20.795Z,2.70
2018-05-02T11:47:48.288Z,7.80
2018-05-02T11:50:15.885Z,2.63
2018-05-02T11:52:43.376Z,5.70
2018-05-02T11:55:11.232Z,2.67
2018-05-02T11:57:38.790Z,1.80
2018-05-02T12:00:06.350Z,2.90
2018-05-02T12:02:33.930Z,3.30
2018-05-02T12:05:02.167Z,3.07
2018-05-02T12:07:29.923Z,2.67
2018-05-02T12:09:57.689Z,3.87
2018-05-02T12:12:25.211Z,4.67
2018-05-02T12:14:52.691Z,6.07
2018-05-02T12:17:20.981Z,4.00
2018-05-02T12:19:48.746Z,3.37
2018-05-02T12:22:16.247Z,2.33
2018-05-02T12:24:43.784Z,3.17
2018-05-02T12:27:11.293Z,2.47
2018-05-02T12:29:38.888Z,2.30
2018-05-02T12:32:06.399Z,3.23
2018-05-02T12:34:33.880Z,4.60
2018-05-02T12:37:02.159Z,2.77
2018-05-02T12:39:29.660Z,2.13
2018-05-02T12:41:57.190Z,2.53
2018-05-02T12:44:25.481Z,3.57
2018-05-02T12:46:52.951Z,1.60
2018-05-02T12:49:20.459Z,1.73
2018-05-02T12:51:47.940Z,3.83
2018-05-02T12:54:16.211Z,4.20
2018-05-02T12:56:43.707Z,8.37
2018-05-02T12:59:11.202Z,2.17
2018-05-02T13:01:38.701Z,1.93
2018-05-02T13:04:06.219Z,4.53
2018-05-02T13:06:34.635Z,1.97
2018-05-02T13:09:02.486Z,1.83
2018-05-02T13:11:29.974Z,5.93
2018-05-02T13:13:57.485Z,2.67
2018-05-02T13:16:25.743Z,1.50
2018-05-02T13:18:53.255Z,3.20
2018-05-02T13:21:21.004Z,2.80
2018-05-02T13:23:48.511Z,3.23
2018-05-02T13:26:16.215Z,1.90
2018-05-02T13:28:43.985Z,5.00
2018-05-02T13:31:11.505Z,1.70
2018-05-02T13:33:38.991Z,1.73
2018-05-02T13:36:07.588Z,2.57
2018-05-02T13:38:35.343Z,3.47
2018-05-02T13:41:03.236Z,4.33
2018-05-02T13:43:30.794Z,2.70
2018-05-02T13:45:58.312Z,2.47
2018-05-02T13:48:26.095Z,2.13
2018-05-02T13:50:53.608Z,4.03
2018-05-02T13:53:22.418Z,3.97
2018-05-02T13:55:50.701Z,2.40
2018-05-02T13:58:18.957Z,4.47
2018-05-02T14:00:46.575Z,2.80
2018-05-02T14:03:14.080Z,1.57
2018-05-02T14:05:41.589Z,1.60
2018-05-02T14:08:09.082Z,3.33
2018-05-02T14:10:36.575Z,4.27
2018-05-02T14:13:04.344Z,2.27
2018-05-02T14:15:31.844Z,4.00
2018-05-02T14:17:59.567Z,1.40
2018-05-02T14:20:27.056Z,6.10
2018-05-02T14:22:54.560Z,5.53
2018-05-02T14:25:22.040Z,2.20
2018-05-02T14:27:50.324Z,2.20
2018-05-02T14:30:18.084Z,3.77
2018-05-02T14:32:45.911Z,1.30
2018-05-02T14:35:13.367Z,1.87
2018-05-02T14:37:41.072Z,4.40
2018-05-02T14:40:08.590Z,2.47
2018-05-02T14:42:36.077Z,2.00
2018-05-02T14:45:04.485Z,1.87
2018-05-02T14:47:32.123Z,3.20
2018-05-02T14:49:59.706Z,1.60
2018-05-02T14:52:27.338Z,4.50
2018-05-02T14:54:54.859Z,3.90
2018-05-02T14:57:22.563Z,3.37
2018-05-02T14:59:50.335Z,3.40
2018-05-02T15:02:18.159Z,3.17
2018-05-02T15:04:45.615Z,3.07
2018-05-02T15:07:13.306Z,2.40
2018-05-02T15:09:41.008Z,2.97
2018-05-02T15:12:08.523Z,4.90
2018-05-02T15:14:36.292Z,2.63
2018-05-02T15:17:04.186Z,3.70
2018-05-02T15:19:31.702Z,3.57
2018-05-02T15:21:59.199Z,2.00
2018-05-02T15:24:26.744Z,2.33
2018-05-02T15:26:54.437Z,4.50
2018-05-02T15:29:21.965Z,6.40
2018-05-02T15:31:49.478Z,2.63
2018-05-02T15:34:16.971Z,2.73
2018-05-02T15:36:45.254Z,3.07
2018-05-02T15:39:12.739Z,4.87
2018-05-02T15:41:40.247Z,7.13
2018-05-02T15:44:08.574Z,8.43
2018-05-02T15:46:36.084Z,4.47
2018-05-02T15:49:04.340Z,10.37
2018-05-02T15:51:31.960Z,3.80
2018-05-02T15:53:59.591Z,7.10
2018-05-02T15:56:27.095Z,5.80
2018-05-02T15:58:54.815Z,4.27
2018-05-02T16:01:22.582Z,5.33
2018-05-02T16:03:50.067Z,6.33
2018-05-02T16:06:17.564Z,5.03
2018-05-02T16:08:45.263Z,1.37
2018-05-02T16:11:13.019Z,2.77
2018-05-02T16:13:40.532Z,9.73
2018-05-02T16:16:08.031Z,28.80
2018-05-02T16:18:36.307Z,15.63
2018-05-02T16:21:04.092Z,7.03
2018-05-02T16:23:31.591Z,6.03
2018-05-02T16:26:00.124Z,4.23
2018-05-02T16:28:27.631Z,1.43
2018-05-02T16:30:55.144Z,2.93
2018-05-02T16:33:23.422Z,7.83
2018-05-02T16:35:50.979Z,1.77
2018-05-02T16:38:18.487Z,2.83
2018-05-02T16:40:46.188Z,2.10
2018-05-02T18:21:28.868Z,3.28
2018-05-02T18:23:56.565Z,8.67
2018-05-02T18:26:24.320Z,4.33
2018-05-02T18:28:51.816Z,4.10
2018-05-02T18:31:19.467Z,20.77
2018-05-02T18:33:46.973Z,5.27
2018-05-02T18:36:16.308Z,2.13
2018-05-02T18:38:43.815Z,2.50
2018-05-02T18:41:11.298Z,4.37
2018-05-02T18:43:38.980Z,1.80
2018-05-02T18:46:06.467Z,2.20
2018-05-02T18:48:33.984Z,3.30
2018-05-02T18:51:02.253Z,2.23
2018-05-02T18:53:29.967Z,3.30
2018-05-02T18:55:57.455Z,3.00
2018-05-02T18:58:25.442Z,4.20
2018-05-02T19:00:53.018Z,2.30
2018-05-02T19:03:20.735Z,2.83
2018-05-02T19:05:48.235Z,5.43
2018-05-02T19:08:15.756Z,4.07
2018-05-02T19:10:43.274Z,3.63
2018-05-02T19:13:10.915Z,4.73
2018-05-02T19:15:38.797Z,3.67
2018-05-02T19:18:11.901Z,1.77
2018-05-02T19:20:39.425Z,4.33
2018-05-02T19:23:07.208Z,2.20
2018-05-02T19:25:40.416Z,8.17
2018-05-02T19:28:07.904Z,6.30
2018-05-02T19:30:35.426Z,3.50
2018-05-02T19:33:08.593Z,2.70
2018-05-02T19:35:36.143Z,4.63
2018-05-02T19:38:03.612Z,3.30
2018-05-02T19:40:36.889Z,3.00
2018-05-02T19:43:10.183Z,2.87
2018-05-02T19:45:38.505Z,3.87
2018-05-02T19:48:06.020Z,5.57
2018-05-02T19:50:33.535Z,5.10
2018-05-02T19:53:01.024Z,6.47
2018-05-02T19:55:28.554Z,3.57
2018-05-02T20:12:26.201Z,5.40
2018-05-02T20:14:53.734Z,5.37
2018-05-02T20:17:21.266Z,5.33
2018-05-02T20:19:48.788Z,4.80
2018-05-02T20:22:17.946Z,2.93
2018-05-02T20:24:45.465Z,6.00
2018-05-02T20:27:13.223Z,6.40
2018-05-02T20:29:40.729Z,5.03
2018-05-02T20:32:08.247Z,3.27
2018-05-02T20:34:35.779Z,5.30
2018-05-02T20:37:03.315Z,4.07
2018-05-02T20:39:30.815Z,5.63
2018-05-02T20:44:32.251Z,3.57
2018-05-02T20:46:59.796Z,5.50
2018-05-02T20:49:27.374Z,7.43
2018-05-02T20:51:54.841Z,4.63
2018-05-02T20:54:22.436Z,4.13
2018-05-02T20:56:50.713Z,6.77
2018-05-02T20:59:18.241Z,7.10
2018-05-02T21:01:46.514Z,5.00
2018-05-02T21:04:14.031Z,5.57
2018-05-02T21:06:41.757Z,5.20
2018-05-02T21:09:09.299Z,6.37
2018-05-02T21:11:37.577Z,4.37
2018-05-02T21:14:05.105Z,6.77
2018-05-02T21:16:32.824Z,3.77
2018-05-02T21:19:00.346Z,4.47
2018-05-02T21:21:28.697Z,5.67
2018-05-02T21:23:56.224Z,11.27
2018-05-02T21:26:23.748Z,4.73
2018-05-02T21:28:51.257Z,5.33
2018-05-02T21:31:18.795Z,6.10
2018-05-02T21:33:46.296Z,6.33
2018-05-02T21:36:13.835Z,6.23
2018-05-02T21:38:41.333Z,4.00
2018-05-02T21:41:08.887Z,4.17
2018-05-02T21:43:36.451Z,6.50
2018-05-02T21:46:04.755Z,12.80
2018-05-02T21:48:32.264Z,6.50
2018-05-02T21:50:59.792Z,5.20
2018-05-02T21:53:27.309Z,11.00
2018-05-02T21:55:54.848Z,5.03
2018-05-02T21:58:22.647Z,8.70
2018-05-02T22:00:50.192Z,6.17
2018-05-02T22:03:17.717Z,4.30
2018-05-02T22:05:45.246Z,8.70
2018-05-02T22:08:12.813Z,5.67
2018-05-02T22:10:40.532Z,6.30
2018-05-02T22:13:08.288Z,5.40
2018-05-02T22:15:35.780Z,6.33
2018-05-02T22:18:03.518Z,8.83
2018-05-02T22:20:31.008Z,6.53
2018-05-02T22:22:58.513Z,7.30
2018-05-02T22:25:27.733Z,8.93
2018-05-02T22:27:55.242Z,10.50
2018-05-02T22:30:22.945Z,6.27
2018-05-02T22:32:50.515Z,7.13
2018-05-02T22:35:18.779Z,9.47
2018-05-02T22:37:46.514Z,6.73
2018-05-02T22:40:14.318Z,8.03
2018-05-02T22:42:42.067Z,5.13
2018-05-02T22:45:09.552Z,8.37
2018-05-02T22:47:37.040Z,7.20
2018-05-02T22:50:04.542Z,7.93
2018-05-02T22:52:32.820Z,6.87
2018-05-02T22:55:00.595Z,12.13
2018-05-02T22:57:28.079Z,5.57
2018-05-02T22:59:55.804Z,6.57
2018-05-02T23:02:23.294Z,8.10
2018-05-02T23:04:50.805Z,8.30
2018-05-02T23:07:19.067Z,6.00
2018-05-02T23:09:46.572Z,5.40
2018-05-02T23:12:14.320Z,6.33
2018-05-02T23:14:42.084Z,3.70
2018-05-02T23:17:09.835Z,4.90
2018-05-02T23:19:37.350Z,10.57
2018-05-02T23:22:05.059Z,6.30
2018-05-02T23:24:32.560Z,6.90
2018-05-02T23:27:00.067Z,6.93
2018-05-02T23:29:28.363Z,6.87
2018-05-02T23:31:55.851Z,5.30
2018-05-02T23:34:23.464Z,6.40
2018-05-02T23:36:50.960Z,5.43
2018-05-02T23:39:18.489Z,3.87
2018-05-02T23:41:46.005Z,7.30
2018-05-02T23:44:13.496Z,5.50
2018-05-02T23:46:41.784Z,5.13
2018-05-02T23:49:09.276Z,7.07
2018-05-02T23:51:36.790Z,6.77
2018-05-02T23:54:05.061Z,8.73
2018-05-02T23:56:32.571Z,11.53
2018-05-02T23:59:00.069Z,5.00
